Costa Victoria — IBLC — position and weather

sailwx.info

Track history (hours):
 
Tides and Currents Weather Stations Pressure Air Temp Water Temp Dewpoint Dewpoint Depression Visibility Wind Speed Wind Dir Waves Ship Positions

Costa Victoria

Last reported at 2018-Jan-20 14:40 UTC. Time now 2018-Jan-24 01:26 UTC.
Position N 01°15' E 104°05'.

Length 253 m; draft 8 m.

Type: Ship. MMSI: 247109000.

Date/timePositionNaut miles runAvg speedWind from/ knotsBaromVisibWave heightAir tempDewpointWater temp
2018-Jan-20 14:40N 01°15' E 104°05'319.0
2018-Jan-20 14:29N 01°14' E 104°02'918.3
2018-Jan-20 14:00N 01°12' E 103°53'5 9.9
2018-Jan-20 13:28N 01°13' E 103°48'3 6.0
2018-Jan-20 13:00N 01°16' E 103°48'1 1.4
2018-Jan-20 12:26N 01°16' E 103°49'0 0.0
2018-Jan-20 11:59N 01°16' E 103°49'0 0.0
2018-Jan-20 11:23N 01°16' E 103°49'0 0.0
2018-Jan-20 10:59N 01°16' E 103°49'0 0.0
2018-Jan-20 10:26N 01°16' E 103°49'0 0.0
2018-Jan-20 09:47N 01°16' E 103°49'0 0.0
2018-Jan-20 09:26N 01°16' E 103°49'0 0.0
2018-Jan-20 08:56N 01°16' E 103°49'0 0.0
2018-Jan-20 08:29N 01°16' E 103°49'0 0.0
2018-Jan-20 07:59N 01°16' E 103°49'0 0.0
2018-Jan-20 07:26N 01°16' E 103°49'0 0.0
2018-Jan-20 06:59N 01°16' E 103°49'0 0.0
2018-Jan-20 06:29N 01°16' E 103°49'0 0.0
2018-Jan-20 05:44N 01°16' E 103°49'0 0.0
2018-Jan-20 05:29N 01°16' E 103°49'0 0.0
2018-Jan-20 04:59N 01°16' E 103°49'0 0.0
2018-Jan-20 04:23N 01°16' E 103°49'0 0.0
2018-Jan-20 03:59N 01°16' E 103°49'0 0.0
2018-Jan-20 03:29N 01°16' E 103°49'0 0.0
2018-Jan-20 02:59N 01°16' E 103°49'0 0.0
2018-Jan-20 02:23N 01°16' E 103°49'0 0.0
2018-Jan-20 01:59N 01°16' E 103°49'0 0.0
2018-Jan-20 01:29N 01°16' E 103°49'0 0.0
2018-Jan-20 00:59N 01°16' E 103°49'0 0.0
2018-Jan-20 00:30N 01°16' E 103°49'1 1.9
2018-Jan-20 00:00N 01°16' E 103°48'4 7.4
2018-Jan-19 23:30N 01°12' E 103°49'712.5
2018-Jan-19 22:59N 01°07' E 103°45'611.9
2018-Jan-19 22:30N 01°04' E 103°40'5 9.9
2018-Jan-19 21:59N 01°05' E 103°35'511.5
2018-Jan-19 21:30N 01°07' E 103°31'611.6
2018-Jan-19 20:58N 01°11' E 103°25'511.5
2018-Jan-19 20:30N 01°14' E 103°21'610.6
2018-Jan-19 19:54N 01°18' E 103°17'302 9.1
2018-Jan-18 10:41N 05°11' E 100°04'317.9
2018-Jan-18 10:30N 05°15' E 100°04'918.1
2018-Jan-18 10:00N 05°24' E 100°05'1016.5
2018-Jan-18 09:23N 05°32' E 100°10'713.4
2018-Jan-18 08:52N 05°32' E 100°17'514.9
2018-Jan-18 08:30N 05°28' E 100°21'3 2.4
2018-Jan-18 07:11N 05°25' E 100°21'0 0.0
2018-Jan-18 06:53N 05°25' E 100°21'0 0.0
2018-Jan-18 06:17N 05°25' E 100°21'0 0.0
2018-Jan-18 04:53N 05°25' E 100°21'0 0.0
2018-Jan-18 04:29N 05°25' E 100°21'0 0.0
2018-Jan-18 03:59N 05°25' E 100°21'0 0.0
2018-Jan-18 03:29N 05°25' E 100°21'0 0.0
2018-Jan-18 02:59N 05°25' E 100°21'0 0.0
2018-Jan-18 02:29N 05°25' E 100°21'0 0.0
2018-Jan-18 01:59N 05°25' E 100°21'0 0.0
2018-Jan-18 01:29N 05°25' E 100°21'0 0.0
2018-Jan-18 00:59N 05°25' E 100°21'0 0.0
2018-Jan-17 23:59N 05°25' E 100°21'0 0.0
2018-Jan-17 23:53N 05°25' E 100°21'  
Track history (hours):
 
Tides and Currents Weather Stations Pressure Air Temp Water Temp Dewpoint Dewpoint Depression Visibility Wind Speed Wind Dir Waves Ship Positions

Costa Victoria

Last reported at 2018-Jan-20 14:40 UTC. Time now 2018-Jan-24 01:26 UTC.
Position N 01°15' E 104°05'.

Length 253 m; draft 8 m.

Type: Ship. MMSI: 247109000.

Date/timePositionNaut miles runAvg speedWind from/ knotsBaromVisibWave heightAir tempDewpointWater temp
2018-Jan-20 14:40N 01°15' E 104°05'319.0
2018-Jan-20 14:29N 01°14' E 104°02'918.3
2018-Jan-20 14:00N 01°12' E 103°53'5 9.9
2018-Jan-20 13:28N 01°13' E 103°48'3 6.0
2018-Jan-20 13:00N 01°16' E 103°48'1 1.4
2018-Jan-20 12:26N 01°16' E 103°49'0 0.0
2018-Jan-20 11:59N 01°16' E 103°49'0 0.0
2018-Jan-20 11:23N 01°16' E 103°49'0 0.0
2018-Jan-20 10:59N 01°16' E 103°49'0 0.0
2018-Jan-20 10:26N 01°16' E 103°49'0 0.0
2018-Jan-20 09:47N 01°16' E 103°49'0 0.0
2018-Jan-20 09:26N 01°16' E 103°49'0 0.0
2018-Jan-20 08:56N 01°16' E 103°49'0 0.0
2018-Jan-20 08:29N 01°16' E 103°49'0 0.0
2018-Jan-20 07:59N 01°16' E 103°49'0 0.0
2018-Jan-20 07:26N 01°16' E 103°49'0 0.0
2018-Jan-20 06:59N 01°16' E 103°49'0 0.0
2018-Jan-20 06:29N 01°16' E 103°49'0 0.0
2018-Jan-20 05:44N 01°16' E 103°49'0 0.0
2018-Jan-20 05:29N 01°16' E 103°49'0 0.0
2018-Jan-20 04:59N 01°16' E 103°49'0 0.0
2018-Jan-20 04:23N 01°16' E 103°49'0 0.0
2018-Jan-20 03:59N 01°16' E 103°49'0 0.0
2018-Jan-20 03:29N 01°16' E 103°49'0 0.0
2018-Jan-20 02:59N 01°16' E 103°49'0 0.0
2018-Jan-20 02:23N 01°16' E 103°49'0 0.0
2018-Jan-20 01:59N 01°16' E 103°49'0 0.0
2018-Jan-20 01:29N 01°16' E 103°49'0 0.0
2018-Jan-20 00:59N 01°16' E 103°49'0 0.0
2018-Jan-20 00:30N 01°16' E 103°49'1 1.9
2018-Jan-20 00:00N 01°16' E 103°48'4 7.4
2018-Jan-19 23:30N 01°12' E 103°49'712.5
2018-Jan-19 22:59N 01°07' E 103°45'611.9
2018-Jan-19 22:30N 01°04' E 103°40'5 9.9
2018-Jan-19 21:59N 01°05' E 103°35'511.5
2018-Jan-19 21:30N 01°07' E 103°31'611.6
2018-Jan-19 20:58N 01°11' E 103°25'511.5
2018-Jan-19 20:30N 01°14' E 103°21'610.6
2018-Jan-19 19:54N 01°18' E 103°17'302 9.1
2018-Jan-18 10:41N 05°11' E 100°04'317.9
2018-Jan-18 10:30N 05°15' E 100°04'918.1
2018-Jan-18 10:00N 05°24' E 100°05'1016.5
2018-Jan-18 09:23N 05°32' E 100°10'713.4
2018-Jan-18 08:52N 05°32' E 100°17'514.9
2018-Jan-18 08:30N 05°28' E 100°21'3 2.4
2018-Jan-18 07:11N 05°25' E 100°21'0 0.0
2018-Jan-18 06:53N 05°25' E 100°21'0 0.0
2018-Jan-18 06:17N 05°25' E 100°21'0 0.0
2018-Jan-18 04:53N 05°25' E 100°21'0 0.0
2018-Jan-18 04:29N 05°25' E 100°21'0 0.0
2018-Jan-18 03:59N 05°25' E 100°21'0 0.0
2018-Jan-18 03:29N 05°25' E 100°21'0 0.0
2018-Jan-18 02:59N 05°25' E 100°21'0 0.0
2018-Jan-18 02:29N 05°25' E 100°21'0 0.0
2018-Jan-18 01:59N 05°25' E 100°21'0 0.0
2018-Jan-18 01:29N 05°25' E 100°21'0 0.0
2018-Jan-18 00:59N 05°25' E 100°21'0 0.0
2018-Jan-17 23:59N 05°25' E 100°21'0 0.0
2018-Jan-17 23:53N 05°25' E 100°21'  

Dump ship's entire track history